Time;durP1;ratioP1;P1;durP2;ratioP2;P2;SDS_P1;SDS_P2;PMS_P1;PMS_P2;Temp;Humidity;BMP_temperature;BMP_pressure;BME280_temperature;BME280_humidity;BME280_pressure;Samples;Min_cycle;Max_cycle;Signal;HPM_P1;HPM_P2
2021/11/02 00:01:45;;;;;;;129.03;65.55;;;;;;;4.13;100.00;100019.70;1724472;82;21169;-75
2021/11/02 00:04:12;;;;;;;115.88;62.88;;;;;;;4.14;100.00;100020.11;1717408;82;21098;-77
2021/11/02 00:06:39;;;;;;;124.42;61.53;;;;;;;4.12;100.00;100016.70;1698899;84;21022;-78
2021/11/02 00:09:06;;;;;;;133.00;64.55;;;;;;;4.12;100.00;100016.70;1694153;84;21124;-77
2021/11/02 00:11:35;;;;;;;120.10;59.70;;;;;;;4.13;100.00;100009.28;1694328;84;21611;-76
2021/11/02 00:14:08;;;;;;;123.33;62.03;;;;;;;4.13;100.00;100010.58;1694043;84;21155;-75
2021/11/02 00:16:36;;;;;;;120.90;62.23;;;;;;;4.17;100.00;100018.80;1693822;84;21145;-76
2021/11/02 00:19:04;;;;;;;119.00;61.53;;;;;;;4.17;100.00;100010.53;1694077;84;21041;-75
2021/11/02 00:21:34;;;;;;;110.88;59.45;;;;;;;4.19;100.00;100011.82;1693987;84;21642;-75
2021/11/02 00:24:15;;;;;;;119.02;59.73;;;;;;;4.19;100.00;100010.07;1693563;84;21084;-73
2021/11/02 00:26:40;;;;;;;;;;;;;;;4.19;100.00;100014.43;1696275;84;21976;-76
2021/11/02 00:29:08;;;;;;;127.80;61.05;;;;;;;4.19;100.00;100002.70;1694042;84;20174;-76
2021/11/02 00:31:36;;;;;;;113.85;58.85;;;;;;;4.17;100.00;100004.45;1694002;84;21659;-76
2021/11/02 00:34:03;;;;;;;116.20;60.85;;;;;;;4.16;100.00;99998.80;1694369;84;21092;-77
2021/11/02 00:36:30;;;;;;;116.82;58.75;;;;;;;4.17;100.00;99996.64;1694067;84;21089;-74
2021/11/02 00:38:58;;;;;;;120.65;61.90;;;;;;;4.16;100.00;99990.98;1694741;83;21113;-75
2021/11/02 00:41:25;;;;;;;115.03;59.85;;;;;;;4.16;100.00;99988.38;1693984;84;21077;-75
2021/11/02 00:43:54;;;;;;;111.25;59.00;;;;;;;4.16;100.00;99983.17;1693877;84;21124;-76
2021/11/02 00:46:30;;;;;;;115.05;59.03;;;;;;;4.15;100.00;99991.88;1694021;84;21062;-76
2021/11/02 00:48:50;;;;;;;121.57;60.45;;;;;;;4.15;100.00;99990.58;1692346;84;21101;-75
2021/11/02 00:51:17;;;;;;;117.25;60.33;;;;;;;4.16;100.00;99985.77;1693937;84;21146;-75
2021/11/02 00:53:44;;;;;;;114.17;60.08;;;;;;;4.17;100.00;99985.77;1696797;84;21075;-76
2021/11/02 00:56:10;;;;;;;120.50;60.83;;;;;;;4.19;100.00;99992.27;1739611;82;21053;-77
2021/11/02 00:58:38;;;;;;;110.63;57.65;;;;;;;4.07;100.00;99964.63;1739311;82;22091;-76
2021/11/02 01:01:04;;;;;;;117.05;61.35;;;;;;;4.21;100.00;99983.99;1739384;82;21068;-77
2021/11/02 01:03:33;;;;;;;115.32;59.20;;;;;;;4.23;100.00;99984.80;1739603;82;21502;-77
2021/11/02 01:06:00;;;;;;;111.40;59.55;;;;;;;4.23;100.00;99979.59;1739635;82;21793;-78
2021/11/02 01:08:27;;;;;;;113.88;61.23;;;;;;;4.24;100.00;99981.78;1739977;82;21025;-77
2021/11/02 01:10:55;;;;;;;113.03;57.40;;;;;;;4.24;100.00;99983.09;1739542;82;21606;-77
2021/11/02 01:13:21;;;;;;;104.67;56.25;;;;;;;4.24;100.00;99986.55;1739501;82;21045;-77
2021/11/02 01:15:48;;;;;;;106.20;55.75;;;;;;;4.29;100.00;99993.86;1739546;82;21156;-78
2021/11/02 01:18:16;;;;;;;122.82;61.80;;;;;;;4.33;100.00;99983.81;1739560;82;21063;-77
2021/11/02 01:20:43;;;;;;;110.83;58.40;;;;;;;4.35;100.00;99983.36;1739718;82;21527;-78
2021/11/02 01:23:11;;;;;;;112.90;55.80;;;;;;;4.38;100.00;99983.30;1739887;82;21127;-77
2021/11/02 01:25:39;;;;;;;109.45;58.87;;;;;;;4.39;100.00;99981.13;1739819;82;21013;-77
2021/11/02 01:28:05;;;;;;;113.35;56.90;;;;;;;4.43;100.00;99984.98;1741358;82;21151;-77
2021/11/02 01:30:34;;;;;;;110.95;58.65;;;;;;;4.44;100.00;99978.87;1741888;82;21037;-76
2021/11/02 01:33:01;;;;;;;112.15;60.65;;;;;;;4.44;100.00;99971.94;1743013;82;21028;-77
2021/11/02 01:35:28;;;;;;;89.92;48.52;;;;;;;4.46;100.00;99966.69;1742644;82;22041;-76
2021/11/02 01:37:57;;;;;;;110.65;58.70;;;;;;;4.46;100.00;99970.59;1745561;81;21037;-75
2021/11/02 01:40:25;;;;;;;111.57;58.50;;;;;;;4.46;100.00;99962.77;1757564;81;21084;-77
2021/11/02 01:42:52;;;;;;;115.92;61.37;;;;;;;4.47;100.00;99961.45;1757456;81;21012;-77
2021/11/02 01:45:21;;;;;;;110.08;60.55;;;;;;;4.48;100.00;99958.40;1758811;81;21091;-74
2021/11/02 01:47:50;;;;;;;106.22;56.95;;;;;;;4.48;100.00;99959.25;1759980;81;21343;-74
2021/11/02 01:50:18;;;;;;;124.07;60.90;;;;;;;4.51;100.00;99959.64;1758911;81;21499;-76
2021/11/02 01:52:46;;;;;;;110.83;60.15;;;;;;;4.51;100.00;99951.41;1733230;81;21332;-78
2021/11/02 01:55:15;;;;;;;81.90;45.50;;;;;;;4.52;100.00;99950.95;1731379;81;21057;-76
2021/11/02 01:57:45;;;;;;;106.70;59.40;;;;;;;4.55;100.00;99949.59;1757767;81;21044;-76
2021/11/02 02:00:15;;;;;;;111.57;58.63;;;;;;;4.57;100.00;99949.13;1757457;81;21606;-77
2021/11/02 02:02:49;;;;;;;113.65;59.83;;;;;;;4.58;100.00;99941.30;1758789;81;21347;-77
2021/11/02 02:05:38;;;;;;;113.75;61.60;;;;;;;4.61;100.00;99946.90;1736225;81;21115;-75
2021/11/02 02:08:42;;;;;;;100.10;53.23;;;;;;;4.62;100.00;99946.89;1728435;83;21005;-73
2021/11/02 02:11:28;;;;;;;89.07;48.40;;;;;;;4.62;100.00;99930.35;1727796;83;21072;-75
2021/11/02 02:14:14;;;;;;;103.25;56.10;;;;;;;4.65;100.00;99937.27;1727396;83;21061;-78
2021/11/02 02:16:45;;;;;;;106.30;59.75;;;;;;;4.69;100.00;99938.49;1728592;83;20990;-76
2021/11/02 02:19:42;;;;;;;111.52;58.25;;;;;;;4.71;100.00;99944.55;1728484;83;21188;-77
2021/11/02 02:22:47;;;;;;;113.42;57.62;;;;;;;4.71;100.00;99938.03;1726665;83;21033;-77
2021/11/02 02:26:01;;;;;;;111.30;58.13;;;;;;;4.72;100.00;99929.34;1725775;83;21084;-73
2021/11/02 02:28:33;;;;;;;115.25;58.23;;;;;;;4.72;100.00;99921.51;1725980;83;21057;-74
2021/11/02 02:31:07;;;;;;;112.50;58.85;;;;;;;4.71;100.00;99921.52;1725745;82;21057;-73
2021/11/02 02:33:48;;;;;;;110.40;58.58;;;;;;;4.69;100.00;99921.53;1725671;82;21103;-74
2021/11/02 02:36:16;;;;;;;105.55;56.60;;;;;;;4.67;100.00;99921.14;1723809;81;21070;-74
2021/11/02 02:38:57;;;;;;;;;;;;;;;4.67;100.00;99920.73;1710797;82;21132;-74
2021/11/02 02:41:24;;;;;;;105.90;57.55;;;;;;;4.67;100.00;99922.03;1732627;82;20493;-74
2021/11/02 02:43:51;;;;;;;112.37;60.28;;;;;;;4.66;100.00;99916.38;1732392;82;21038;-78
2021/11/02 02:46:17;;;;;;;114.00;62.53;;;;;;;4.65;100.00;99919.00;1669355;86;21392;-77
2021/11/02 02:48:44;;;;;;;111.57;60.95;;;;;;;4.66;100.00;99912.47;1669054;86;21058;-76
2021/11/02 02:51:11;;;;;;;116.75;62.98;;;;;;;4.66;100.00;99917.69;1669263;86;21079;-77
2021/11/02 02:53:46;;;;;;;115.50;61.58;;;;;;;4.65;100.00;99908.16;1677660;84;21078;-77
2021/11/02 02:56:13;;;;;;;114.77;60.43;;;;;;;4.67;100.00;99902.47;1732740;82;21058;-76
2021/11/02 02:58:43;;;;;;;107.10;59.30;;;;;;;4.67;100.00;99905.50;1669329;86;21117;-77
2021/11/02 03:01:13;;;;;;;115.20;60.85;;;;;;;4.66;100.00;99907.25;1697117;84;21035;-76
2021/11/02 03:03:47;;;;;;;112.28;60.95;;;;;;;4.66;100.00;99905.95;1731335;82;21023;-77
2021/11/02 03:06:23;;;;;;;111.70;58.25;;;;;;;4.68;100.00;99906.78;1719775;82;21099;-76
2021/11/02 03:08:53;;;;;;;114.45;57.25;;;;;;;4.67;100.00;99893.34;1719598;83;21007;-77
2021/11/02 03:11:22;;;;;;;93.97;51.92;;;;;;;4.68;100.00;99901.57;1719437;82;21058;-74
2021/11/02 03:13:51;;;;;;;115.22;58.00;;;;;;;4.68;100.00;99901.57;1719191;82;21039;-73
2021/11/02 03:16:25;;;;;;;113.30;60.52;;;;;;;4.69;100.00;99895.45;1719443;83;21098;-73
2021/11/02 03:49:06;;;;;;;121.40;59.55;;;;;;;4.75;100.00;99886.68;1719591;83;21821;-74
2021/11/02 03:59:35;;;;;;;109.90;58.58;;;;;;;4.84;100.00;99871.72;1719310;82;20176;-79
2021/11/02 05:53:56;;;;;;;110.32;54.73;;;;;;;4.95;100.00;99805.44;1688198;84;21203;-78
2021/11/02 05:58:40;;;;;;;103.92;55.20;;;;;;;4.97;100.00;99801.02;1693024;84;21103;-75
2021/11/02 06:03:49;;;;;;;105.55;56.05;;;;;;;4.98;100.00;99795.78;1699953;83;21132;-76
2021/11/02 06:28:34;;;;;;;110.30;54.80;;;;;;;5.10;100.00;99823.39;1677566;85;21090;-77
2021/11/02 06:31:09;;;;;;;112.83;58.08;;;;;;;5.09;100.00;99825.60;1704138;83;21197;-77
2021/11/02 06:33:40;;;;;;;115.17;57.95;;;;;;;5.09;100.00;99822.99;1706451;83;21153;-79
2021/11/02 06:53:18;;;;;;;126.35;61.45;;;;;;;5.17;100.00;99824.98;1683503;83;21128;-78
2021/11/02 06:56:13;;;;;;;117.03;55.85;;;;;;;5.19;100.00;99821.05;1709163;82;21025;-78
2021/11/02 06:59:19;;;;;;;118.15;58.70;;;;;;;5.21;100.00;99821.44;1668594;85;21096;-76
2021/11/02 07:18:10;;;;;;;122.50;58.75;;;;;;;5.36;100.00;99825.92;1698372;81;22140;-78
2021/11/02 07:25:52;;;;;;;123.78;57.40;;;;;;;5.41;100.00;99820.19;1701284;81;21092;-76
2021/11/02 07:28:24;;;;;;;103.80;52.17;;;;;;;5.44;100.00;99822.72;1712061;83;21446;-75
2021/11/02 08:46:27;;;;;;;68.97;38.75;;;;;;;6.01;100.00;99758.32;1729243;82;21085;-81
2021/11/02 08:48:55;;;;;;;74.92;40.83;;;;;;;6.03;100.00;99750.00;1733333;82;21050;-85
2021/11/02 08:51:17;;;;;;;73.95;38.88;;;;;;;6.04;100.00;99749.08;1704422;82;21121;-81
2021/11/02 08:53:44;;;;;;;73.60;40.60;;;;;;;6.05;100.00;99742.98;1718086;82;22097;-83
2021/11/02 08:56:16;;;;;;;71.05;39.63;;;;;;;6.11;100.00;99749.80;1728318;82;21113;-85
2021/11/02 08:58:45;;;;;;;75.50;37.65;;;;;;;6.14;100.00;99743.63;1694529;82;21027;-83
2021/11/02 09:01:12;;;;;;;73.22;36.75;;;;;;;6.13;100.00;99731.47;1710233;82;21650;-82
2021/11/02 09:03:43;;;;;;;62.65;35.83;;;;;;;6.15;100.00;99723.14;1724880;82;21851;-74
2021/11/02 09:06:13;;;;;;;66.10;34.33;;;;;;;6.19;100.00;99722.14;1732330;82;21125;-74
2021/11/02 09:08:42;;;;;;;64.75;35.40;;;;;;;6.22;100.00;99719.47;1725759;82;21042;-74
2021/11/02 09:11:09;;;;;;;62.23;33.63;;;;;;;6.24;100.00;99716.37;1715242;82;21093;-74
2021/11/02 09:13:36;;;;;;;66.92;33.38;;;;;;;6.26;100.00;99714.58;1718675;82;21157;-74
2021/11/02 09:16:03;;;;;;;57.95;33.13;;;;;;;6.27;100.00;99706.67;1716006;82;21116;-76
2021/11/02 09:18:30;;;;;;;57.17;31.55;;;;;;;6.32;100.00;99702.63;1712322;82;21113;-75
2021/11/02 09:20:57;;;;;;;51.85;27.77;;;;;;;6.36;100.00;99696.42;1718781;82;21133;-75
2021/11/02 09:23:26;;;;;;;51.77;30.75;;;;;;;6.40;100.00;99696.75;1693791;83;21948;-75
2021/11/02 09:25:56;;;;;;;47.83;28.07;;;;;;;6.45;100.00;99692.25;1698578;82;21077;-77
2021/11/02 09:28:24;;;;;;;54.50;28.87;;;;;;;6.47;100.00;99686.53;1709973;82;21140;-75
2021/11/02 09:30:52;;;;;;;49.75;29.50;;;;;;;6.53;100.00;99679.41;1733779;82;21066;-75
2021/11/02 09:33:21;;;;;;;50.80;29.20;;;;;;;6.55;100.00;99673.68;1720481;82;21148;-76
2021/11/02 09:35:58;;;;;;;52.40;29.12;;;;;;;6.59;100.00;99672.70;1713427;82;21050;-76
2021/11/02 09:38:46;;;;;;;51.02;29.12;;;;;;;6.61;100.00;99668.29;1733273;82;21057;-75
2021/11/02 09:41:50;;;;;;;46.50;28.02;;;;;;;6.61;100.00;99673.52;1733994;80;21510;-75
2021/11/02 09:44:38;;;;;;;43.87;25.72;;;;;;;6.60;100.00;99666.13;1726549;80;21607;-77
2021/11/02 09:47:33;;;;;;;46.58;27.45;;;;;;;6.62;100.00;99664.30;1725972;82;21044;-75
2021/11/02 09:50:40;;;;;;;47.10;25.50;;;;;;;6.64;100.00;99652.49;1731009;82;21604;-75
2021/11/02 09:53:28;;;;;;;44.30;25.05;;;;;;;6.65;100.00;99647.69;1729668;82;21034;-80
2021/11/02 09:56:24;;;;;;;44.58;25.23;;;;;;;6.65;100.00;99644.61;1729016;82;21080;-81
2021/11/02 09:59:45;;;;;;;44.25;25.25;;;;;;;6.64;100.00;99641.57;1732974;82;21367;-79
2021/11/02 10:02:51;;;;;;;41.15;24.45;;;;;;;6.65;100.00;99641.14;1733756;82;21617;-79
2021/11/02 10:05:55;;;;;;;45.48;24.52;;;;;;;6.59;100.00;99625.61;1727015;81;21630;-81
2021/11/02 10:08:43;;;;;;;43.38;24.18;;;;;;;6.57;100.00;99621.72;1731165;82;21608;-79
2021/11/02 10:11:38;;;;;;;39.70;22.98;;;;;;;6.60;100.00;99615.11;1742283;80;21547;-81
2021/11/02 10:14:26;;;;;;;41.25;23.65;;;;;;;6.60;100.00;99607.69;1728213;82;21071;-81
2021/11/02 10:17:14;;;;;;;36.45;22.82;;;;;;;6.62;100.00;99612.43;1741567;82;21677;-79
2021/11/02 10:20:10;;;;;;;44.10;24.02;;;;;;;6.64;100.00;99610.63;1741707;80;21575;-77
2021/11/02 10:23:34;;;;;;;38.45;21.80;;;;;;;6.66;100.00;99599.21;1735735;82;21132;-76
2021/11/02 10:26:25;;;;;;;37.03;23.10;;;;;;;6.71;100.00;99599.08;1727991;82;21105;-78
2021/11/02 10:29:28;;;;;;;;;;;;;;;6.75;100.00;99596.78;1716817;82;21114;-78
2021/11/02 10:32:06;;;;;;;38.98;22.45;;;;;;;6.81;100.00;99587.45;1738917;82;20552;-77
2021/11/02 10:34:40;;;;;;;36.40;21.73;;;;;;;6.83;100.00;99577.79;1652479;86;21084;-77
2021/11/02 10:37:44;;;;;;;38.40;23.05;;;;;;;6.86;100.00;99576.38;1727291;82;21571;-77
2021/11/02 10:40:25;;;;;;;35.25;22.35;;;;;;;6.89;100.00;99576.27;1719845;82;21329;-78
2021/11/02 10:43:38;;;;;;;35.75;21.80;;;;;;;6.90;100.00;99578.43;1722772;82;21030;-78
2021/11/02 10:46:10;;;;;;;37.40;21.17;;;;;;;6.92;100.00;99567.04;1717523;83;22239;-78
2021/11/02 10:48:47;;;;;;;36.17;21.80;;;;;;;6.90;100.00;99564.03;1717598;82;21542;-80
2021/11/02 10:51:41;;;;;;;36.05;21.85;;;;;;;6.91;100.00;99561.84;1717754;83;21006;-76
2021/11/02 10:56:23;;;;;;;35.38;20.52;;;;;;;6.94;100.00;99552.57;1800419;79;28721;-75
2021/11/02 10:58:51;;;;;;;33.67;20.37;;;;;;;6.87;100.00;99547.98;1689565;81;21090;-77
2021/11/02 11:01:18;;;;;;;38.58;21.42;;;;;;;6.90;100.00;99546.59;1755811;81;21110;-76
2021/11/02 11:03:44;;;;;;;33.73;19.92;;;;;;;6.90;100.00;99540.05;1755895;80;21112;-75
2021/11/02 11:06:13;;;;;;;36.95;22.55;;;;;;;6.92;100.00;99537.36;1712070;82;20954;-77
2021/11/02 11:08:42;;;;;;;45.15;25.10;;;;;;;6.92;100.00;99531.70;1747482;81;21050;-76
2021/11/02 11:11:13;;;;;;;39.58;23.83;;;;;;;6.95;100.00;99526.81;1747902;82;21094;-74
2021/11/02 11:13:43;;;;;;;37.23;22.22;;;;;;;6.97;100.00;99518.89;1747157;82;21110;-75
2021/11/02 11:16:17;;;;;;;42.93;24.98;;;;;;;6.97;100.00;99521.51;1751428;81;21575;-75
2021/11/02 11:19:07;;;;;;;45.90;25.70;;;;;;;6.98;100.00;99521.93;1755368;81;21001;-76
2021/11/02 11:21:34;;;;;;;42.60;23.40;;;;;;;6.98;100.00;99506.22;1757567;80;21033;-75
2021/11/02 11:24:32;;;;;;;38.88;23.15;;;;;;;6.94;100.00;99504.99;1737585;80;21060;-76
2021/11/02 11:27:05;;;;;;;38.25;20.68;;;;;;;6.94;100.00;99504.14;1696819;84;21673;-75
2021/11/02 11:29:32;;;;;;;49.50;24.57;;;;;;;6.90;100.00;99490.31;1689033;83;21115;-75
2021/11/02 11:31:59;;;;;;;38.10;23.35;;;;;;;6.92;100.00;99496.79;1725759;83;21473;-76
2021/11/02 11:34:36;;;;;;;39.08;22.82;;;;;;;6.90;100.00;99486.39;1725265;82;21073;-75
2021/11/02 11:37:06;;;;;;;37.78;21.97;;;;;;;6.91;100.00;99485.47;1725825;82;22238;-75
2021/11/02 11:39:38;;;;;;;39.08;22.98;;;;;;;6.92;100.00;99482.39;1740629;80;21219;-79
2021/11/02 11:42:06;;;;;;;39.53;23.67;;;;;;;6.92;100.00;99481.97;1738932;80;21104;-76
2021/11/02 11:44:32;;;;;;;38.85;23.90;;;;;;;6.93;100.00;99477.12;1725730;82;21124;-77
2021/11/02 11:47:09;;;;;;;38.17;23.20;;;;;;;6.96;100.00;99476.62;1729805;80;21082;-79
2021/11/02 11:49:39;;;;;;;37.13;23.05;;;;;;;6.98;100.00;99468.27;1729221;81;21113;-77
2021/11/02 11:52:08;;;;;;;34.25;21.15;;;;;;;7.00;100.00;99471.69;1716728;81;21155;-78
2021/11/02 11:54:52;;;;;;;36.15;21.65;;;;;;;7.03;100.00;99463.73;1721868;82;21107;-77
2021/11/02 11:57:36;;;;;;;37.03;21.93;;;;;;;7.05;100.00;99464.53;1722356;83;21103;-77
2021/11/02 12:00:09;;;;;;;39.23;21.33;;;;;;;7.06;100.00;99463.61;1704697;83;21631;-78
2021/11/02 12:03:00;;;;;;;42.10;21.73;;;;;;;7.07;100.00;99457.48;1720773;83;21065;-79
2021/11/02 12:05:26;;;;;;;33.00;19.48;;;;;;;7.10;100.00;99457.38;1722520;81;21522;-79
2021/11/02 12:08:18;;;;;;;33.18;19.87;;;;;;;7.11;100.00;99453.87;1716853;81;21543;-79
2021/11/02 12:10:45;;;;;;;35.20;19.40;;;;;;;7.12;100.00;99455.56;1715466;83;21128;-79
2021/11/02 12:13:13;;;;;;;30.52;16.87;;;;;;;7.12;100.00;99456.41;1716394;83;21767;-79
2021/11/02 12:16:10;;;;;;;34.55;21.15;;;;;;;7.12;100.00;99463.42;1717845;82;21069;-78
2021/11/02 12:18:42;;;;;;;41.90;24.43;;;;;;;7.13;100.00;99467.73;1704908;82;21118;-78
2021/11/02 12:21:17;;;;;;;40.73;23.50;;;;;;;7.11;100.00;99466.50;1718588;82;21102;-79
2021/11/02 12:23:45;;;;;;;39.50;24.37;;;;;;;7.12;100.00;99463.42;1720963;82;21066;-78
2021/11/02 12:26:12;;;;;;;34.70;19.70;;;;;;;7.12;100.00;99471.27;1719131;82;21040;-79
2021/11/02 12:28:46;;;;;;;33.58;18.73;;;;;;;7.13;100.00;99472.97;1719334;82;21043;-79
2021/11/02 12:31:17;;;;;;;33.55;18.30;;;;;;;7.11;100.00;99469.11;1717346;82;21119;-79
2021/11/02 12:33:50;;;;;;;33.28;17.82;;;;;;;7.11;100.00;99465.65;1715351;83;21066;-76
2021/11/02 12:36:25;;;;;;;32.17;18.42;;;;;;;7.12;100.00;99461.65;1714407;82;21119;-79
2021/11/02 12:39:05;;;;;;;35.85;20.37;;;;;;;7.12;100.00;99460.80;1717123;81;21049;-79
2021/11/02 12:41:32;;;;;;;35.88;19.77;;;;;;;7.10;100.00;99461.30;1712859;82;21068;-79
2021/11/02 12:44:09;;;;;;;34.45;20.27;;;;;;;7.12;100.00;99451.63;1714834;82;21135;-73
2021/11/02 12:46:39;;;;;;;33.10;21.00;;;;;;;7.12;100.00;99452.95;1711501;82;21113;-77
2021/11/02 12:49:07;;;;;;;38.92;22.02;;;;;;;7.13;100.00;99445.48;1713665;82;21093;-78
2021/11/02 12:51:45;;;;;;;36.68;21.25;;;;;;;7.14;100.00;99448.05;1701618;83;21085;-81
2021/11/02 12:54:18;;;;;;;34.10;21.50;;;;;;;7.14;100.00;99448.05;1687424;83;21040;-81
2021/11/02 12:56:56;;;;;;;41.70;24.20;;;;;;;7.15;100.00;99441.05;1696267;81;21859;-79
2021/11/02 12:59:32;;;;;;;42.15;23.75;;;;;;;7.16;100.00;99442.78;1723756;81;21077;-79
2021/11/02 13:02:00;;;;;;;47.73;25.50;;;;;;;7.18;100.00;99440.96;1722684;83;21033;-81
2021/11/02 13:04:35;;;;;;;48.17;24.98;;;;;;;7.21;100.00;99435.61;1674892;83;21084;-79
2021/11/02 13:07:02;;;;;;;41.18;23.73;;;;;;;7.23;100.00;99429.87;1712300;83;22063;-79
2021/11/02 13:09:34;;;;;;;41.70;22.95;;;;;;;7.26;100.00;99434.99;1692126;83;21428;-79
2021/11/02 13:12:07;;;;;;;44.20;24.35;;;;;;;7.28;100.00;99433.17;1721390;82;21051;-77
2021/11/02 13:14:45;;;;;;;51.83;25.77;;;;;;;7.26;100.00;99423.20;1717207;83;21671;-78
2021/11/02 13:17:17;;;;;;;48.40;25.37;;;;;;;7.29;100.00;99420.93;1713180;82;21010;-78
2021/11/02 13:19:48;;;;;;;49.42;24.77;;;;;;;7.29;100.00;99416.57;1724146;81;21060;-81
2021/11/02 13:22:19;;;;;;;45.58;25.02;;;;;;;7.31;100.00;99416.50;1708716;81;21148;-81
2021/11/02 13:24:59;;;;;;;50.65;24.12;;;;;;;7.31;100.00;99412.56;1708196;83;21074;-79
2021/11/02 13:27:40;;;;;;;49.08;24.15;;;;;;;7.31;100.00;99408.18;1718103;82;21106;-79
2021/11/02 13:30:37;;;;;;;53.75;27.17;;;;;;;7.32;100.00;99405.98;1695965;82;21095;-78
2021/11/02 13:33:20;;;;;;;53.30;25.85;;;;;;;7.34;100.00;99400.23;1705127;82;21011;-77
2021/11/02 13:35:57;;;;;;;48.23;25.15;;;;;;;7.37;100.00;99403.66;1704072;82;21161;-78
2021/11/02 13:38:35;;;;;;;53.17;27.82;;;;;;;7.35;100.00;99397.16;1732434;80;21057;-74
2021/11/02 13:41:24;;;;;;;51.90;28.25;;;;;;;7.34;100.00;99398.92;1743127;80;21057;-75
2021/11/02 13:43:55;;;;;;;59.38;28.42;;;;;;;7.35;100.00;99403.23;1744415;80;21062;-74
2021/11/02 13:46:24;;;;;;;57.55;27.77;;;;;;;7.35;100.00;99400.62;1733696;80;21054;-76
2021/11/02 13:48:51;;;;;;;61.33;30.00;;;;;;;7.35;100.00;99401.08;1747868;81;21177;-75
2021/11/02 13:51:19;;;;;;;58.40;29.75;;;;;;;7.37;100.00;99399.73;1749478;81;21072;-75
2021/11/02 13:53:45;;;;;;;62.10;31.12;;;;;;;7.38;100.00;99392.25;1742521;81;21477;-75
2021/11/02 13:56:22;;;;;;;59.80;31.17;;;;;;;7.38;100.00;99379.16;1744486;81;21018;-74
2021/11/02 13:58:48;;;;;;;67.12;30.12;;;;;;;7.38;100.00;99380.47;1720571;80;21281;-74
2021/11/02 14:01:38;;;;;;;73.35;34.53;;;;;;;7.38;100.00;99378.70;1734123;81;21123;-76
2021/11/02 14:04:21;;;;;;;76.07;33.90;;;;;;;7.37;100.00;99384.02;1753113;81;21795;-75
2021/11/02 14:07:12;;;;;;;77.12;34.30;;;;;;;7.35;100.00;99379.66;1695405;82;21330;-76
2021/11/02 14:09:41;;;;;;;70.80;35.17;;;;;;;7.37;100.00;99377.46;1751133;81;21125;-75
2021/11/02 14:12:30;;;;;;;67.78;32.73;;;;;;;7.39;100.00;99379.58;1760931;80;21074;-74
2021/11/02 14:15:18;;;;;;;75.62;35.10;;;;;;;7.39;100.00;99374.34;1759452;81;21494;-74
2021/11/02 14:17:57;;;;;;;73.67;34.88;;;;;;;7.37;100.00;99368.30;1750546;80;21600;-74
2021/11/02 14:20:49;;;;;;;76.45;37.45;;;;;;;7.37;100.00;99372.22;1763034;80;21065;-74
2021/11/02 14:23:33;;;;;;;76.15;36.05;;;;;;;7.37;100.00;99370.91;1743963;80;21032;-74
2021/11/02 14:27:10;;;;;;;74.03;35.52;;;;;;;7.38;100.00;99368.68;1753091;80;21034;-74
2021/11/02 14:29:01;;;;;;;80.00;37.53;;;;;;;7.38;100.00;99367.38;1712795;81;21549;-73
2021/11/02 14:31:43;;;;;;;73.67;35.52;;;;;;;7.38;100.00;99373.92;1744612;81;21056;-74
2021/11/02 14:34:45;;;;;;;79.37;37.50;;;;;;;7.38;100.00;99365.59;1716213;83;22188;-75
2021/11/02 14:37:17;;;;;;;77.20;36.58;;;;;;;7.39;100.00;99365.17;1720311;83;21066;-74
2021/11/02 14:40:06;;;;;;;72.03;33.73;;;;;;;7.40;100.00;99359.00;1741189;82;21119;-75
2021/11/02 14:42:48;;;;;;;75.87;38.60;;;;;;;7.41;100.00;99359.39;1754024;80;21109;-75
2021/11/02 14:45:19;;;;;;;65.55;33.20;;;;;;;7.41;100.00;99355.03;1714612;83;21021;-73
2021/11/02 14:47:48;;;;;;;69.10;35.13;;;;;;;7.43;100.00;99362.81;1689507;84;20990;-75
2021/11/02 14:50:36;;;;;;;75.83;36.20;;;;;;;7.43;100.00;99360.19;1700625;84;21082;-75
2021/11/02 14:53:17;;;;;;;62.90;32.28;;;;;;;7.43;100.00;99361.50;1705948;83;20993;-75
2021/11/02 14:55:51;;;;;;;;;;;;;;;7.45;100.00;99360.99;1695190;83;21110;-75
2021/11/02 14:58:42;;;;;;;68.10;33.70;;;;;;;7.44;100.00;99363.23;1702786;84;20189;-74
2021/11/02 15:01:16;;;;;;;69.22;34.73;;;;;;;7.46;100.00;99368.81;1720086;81;21065;-75
2021/11/02 15:03:58;;;;;;;69.12;34.48;;;;;;;7.47;100.00;99365.27;1750333;81;21039;-74
2021/11/02 15:06:35;;;;;;;71.40;35.90;;;;;;;7.43;100.00;99358.45;1699714;83;21144;-75
2021/11/02 15:09:12;;;;;;;70.65;35.85;;;;;;;7.49;100.00;99365.22;1686494;85;21326;-75
2021/11/02 15:11:39;;;;;;;75.03;36.13;;;;;;;7.50;100.00;99366.91;1738817;82;21532;-75
2021/11/02 15:14:13;;;;;;;81.32;37.90;;;;;;;7.49;100.00;99367.84;1760094;81;21054;-74
2021/11/02 15:16:47;;;;;;;87.10;39.65;;;;;;;7.50;100.00;99366.91;1768641;79;21573;-74
2021/11/02 15:19:14;;;;;;;87.90;38.88;;;;;;;7.50;100.00;99366.91;1762409;81;21045;-74
2021/11/02 15:21:44;;;;;;;85.00;39.53;;;;;;;7.51;100.00;99372.11;1756262;81;21115;-74
2021/11/02 15:24:26;;;;;;;80.15;38.20;;;;;;;7.51;100.00;99371.27;1715351;83;21093;-74
2021/11/02 15:27:04;;;;;;;81.42;37.45;;;;;;;7.51;100.00;99368.64;1688125;84;21077;-75
2021/11/02 15:29:34;;;;;;;90.83;43.00;;;;;;;7.53;100.00;99365.52;1679110;84;21070;-75
2021/11/02 15:32:09;;;;;;;80.00;37.05;;;;;;;7.55;100.00;99371.55;1682998;83;21623;-74
2021/11/02 15:34:56;;;;;;;77.90;37.17;;;;;;;7.55;100.00;99370.25;1742233;80;21207;-74
2021/11/02 15:37:27;;;;;;;77.72;36.63;;;;;;;7.56;100.00;99364.92;1746901;80;21502;-74
2021/11/02 15:40:14;;;;;;;79.90;38.55;;;;;;;7.59;100.00;99363.95;1755185;81;22065;-74
2021/11/02 15:42:49;;;;;;;76.72;36.88;;;;;;;7.60;100.00;99368.30;1753641;81;21069;-75
2021/11/02 15:45:37;;;;;;;73.05;35.65;;;;;;;7.62;100.00;99366.48;1750577;80;21039;-75
2021/11/02 15:48:12;;;;;;;65.20;33.02;;;;;;;7.64;100.00;99367.28;1753854;81;21112;-76
2021/11/02 15:50:44;;;;;;;65.47;33.33;;;;;;;7.65;100.00;99355.03;1755641;81;21062;-75
2021/11/02 15:53:11;;;;;;;68.97;36.65;;;;;;;7.65;100.00;99359.81;1754984;81;21088;-74
2021/11/02 15:55:38;;;;;;;70.03;34.98;;;;;;;7.67;100.00;99355.36;1749084;81;21086;-75
2021/11/02 15:58:07;;;;;;;72.30;35.80;;;;;;;7.69;100.00;99360.09;1751212;81;21104;-75
2021/11/02 16:00:37;;;;;;;66.62;34.75;;;;;;;7.69;100.00;99365.34;1753933;81;21287;-74
2021/11/02 16:03:05;;;;;;;62.43;34.30;;;;;;;7.70;100.00;99361.79;1746085;81;21053;-74
2021/11/02 16:05:35;;;;;;;66.97;34.25;;;;;;;7.71;100.00;99363.52;1748729;81;21032;-75
2021/11/02 16:08:05;;;;;;;70.83;34.43;;;;;;;7.73;100.00;99364.32;1747286;81;21626;-74
2021/11/02 16:10:34;;;;;;;61.02;32.35;;;;;;;7.73;100.00;99357.77;1753299;81;21099;-74
2021/11/02 16:13:05;;;;;;;60.67;33.38;;;;;;;7.75;100.00;99360.31;1746577;81;22358;-73
2021/11/02 16:15:36;;;;;;;66.53;34.40;;;;;;;7.77;100.00;99362.42;1741405;81;21635;-75
2021/11/02 16:18:06;;;;;;;67.35;34.88;;;;;;;7.77;100.00;99360.64;1719704;83;21076;-74
2021/11/02 16:20:37;;;;;;;75.45;35.43;;;;;;;7.81;100.00;99364.48;1719144;83;21068;-74
2021/11/02 16:23:10;;;;;;;72.25;37.03;;;;;;;7.81;100.00;99361.86;1718523;82;21625;-76
2021/11/02 16:25:41;;;;;;;76.50;35.33;;;;;;;7.83;100.00;99358.73;1679886;84;21856;-74
2021/11/02 16:28:14;;;;;;;69.37;36.03;;;;;;;7.84;100.00;99360.42;1707277;83;28205;-74
2021/11/02 16:30:44;;;;;;;76.02;37.10;;;;;;;7.84;100.00;99363.05;1673524;84;21065;-75
2021/11/02 16:33:12;;;;;;;73.28;37.40;;;;;;;7.85;100.00;99366.93;1694399;83;21564;-75
2021/11/02 16:35:44;;;;;;;74.65;37.70;;;;;;;7.87;100.00;99366.88;1696869;83;21056;-75
2021/11/02 16:38:51;;;;;;;73.67;38.25;;;;;;;7.87;100.00;99361.64;1687691;84;21136;-74
2021/11/02 16:41:22;;;;;;;76.70;38.88;;;;;;;7.87;100.00;99358.55;1678709;83;21071;-75
2021/11/02 16:44:00;;;;;;;73.45;37.10;;;;;;;7.91;100.00;99356.65;1673293;85;21113;-74
2021/11/02 16:46:31;;;;;;;80.65;38.02;;;;;;;7.92;100.00;99355.75;1681691;85;21120;-74